Alvarado, Minnesota
Current Conditions -  °F | °C
As of 6:53 PM on Tuesday 21 Oct 2014 (Local Time) from KGFK Reporting Station
Clear Clear  
Wind Chill: 60°   Ceiling: Unl
Heat Index: 60°   Visibility: 10mi
Dew Point: 42°   Wind: 23mph
Humidity: 51%   Direction: 150°SSE
Pressure: 29.84"   Gusts: 30mph
Location:  48.19°N, 97°W
Report Text: KGFK 212353Z 15020G26KT 10SM CLR 16/06 A2984 RMK AO2 PK WND 15028/2337 SLP111 T01560056 10189 20156 56007
Loading
Personal Weather Stations






























Interactive Weather Map New forecast layout! Learn more

10-Day Weather Forecast

Advertisements
Track Severe Weather on mobile